createdAt,value
2018-10-21T00:31:27.973Z,20.00
2018-10-21T00:33:56.992Z,22.33
2018-10-21T00:36:26.031Z,20.00
2018-10-21T00:38:55.165Z,19.30
2018-10-21T00:41:24.175Z,19.90
2018-10-21T00:43:53.257Z,23.50
2018-10-21T00:46:22.257Z,19.30
2018-10-21T00:48:51.261Z,20.43
2018-10-21T00:51:20.266Z,21.60
2018-10-21T00:53:50.576Z,20.80
2018-10-21T00:56:19.561Z,26.37
2018-10-21T00:58:48.581Z,22.33
2018-10-21T01:01:17.597Z,19.47
2018-10-21T01:03:46.603Z,22.43
2018-10-21T01:06:15.621Z,21.70
2018-10-21T01:08:44.634Z,22.17
2018-10-21T01:11:13.657Z,23.00
2018-10-21T01:13:42.664Z,19.50
2018-10-21T01:16:11.672Z,20.20
2018-10-21T01:18:40.691Z,20.57
2018-10-21T01:21:09.784Z,20.87
2018-10-21T01:23:38.697Z,20.53
2018-10-21T01:26:07.718Z,18.73
2018-10-21T01:28:36.706Z,21.67
2018-10-21T01:31:06.028Z,19.73
2018-10-21T01:33:35.249Z,24.47
2018-10-21T01:36:05.331Z,22.17
2018-10-21T01:38:34.302Z,20.30
2018-10-21T01:41:03.356Z,19.50
2018-10-21T01:43:33.290Z,24.53
2018-10-21T01:46:03.120Z,21.13
2018-10-21T01:48:33.424Z,21.27
2018-10-21T01:58:26.994Z,28.83
2018-10-21T02:00:55.992Z,28.73
2018-10-21T03:06:47.964Z,21.10
2018-10-21T03:09:17.068Z,23.10
2018-10-21T03:11:46.028Z,22.37
2018-10-21T03:14:15.020Z,20.53
2018-10-21T03:16:44.046Z,21.20
2018-10-21T03:19:13.058Z,25.13
2018-10-21T03:21:42.094Z,21.47
2018-10-21T03:24:11.110Z,23.53
2018-10-21T03:26:40.137Z,23.00
2018-10-21T03:34:05.830Z,21.77
2018-10-21T03:36:34.621Z,22.87
2018-10-21T03:39:05.173Z,24.60
2018-10-21T03:41:34.129Z,22.83
2018-10-21T03:44:03.260Z,26.07
2018-10-21T03:46:32.335Z,26.50
2018-10-21T03:49:01.382Z,23.67
2018-10-21T03:51:30.411Z,27.97
2018-10-21T03:53:59.432Z,25.30
2018-10-21T03:56:28.656Z,27.50
2018-10-21T03:58:57.644Z,25.03
2018-10-21T04:01:26.692Z,24.43
2018-10-21T04:03:55.696Z,25.37
2018-10-21T04:06:24.962Z,25.07
2018-10-21T04:08:53.945Z,24.20
2018-10-21T04:11:23.159Z,24.73
2018-10-21T04:13:52.176Z,25.50
2018-10-21T04:16:21.186Z,24.20
2018-10-21T04:18:50.192Z,24.93
2018-10-21T04:21:19.211Z,22.43
2018-10-21T04:23:48.217Z,25.57
2018-10-21T04:26:17.234Z,24.67
2018-10-21T04:28:46.256Z,24.13
2018-10-21T04:31:15.276Z,23.07
2018-10-21T04:33:45.325Z,26.13
2018-10-21T04:36:18.164Z,23.93
2018-10-21T04:40:05.868Z,24.20
2018-10-21T04:42:34.850Z,24.87
2018-10-21T04:45:04.295Z,25.03
2018-10-21T04:47:33.316Z,26.30
2018-10-21T04:50:03.086Z,26.37
2018-10-21T04:52:32.955Z,25.07
2018-10-21T04:55:06.901Z,26.37
2018-10-21T04:57:37.029Z,25.10
2018-10-21T05:00:08.761Z,27.87
2018-10-21T05:02:37.782Z,25.60
2018-10-21T05:05:07.601Z,23.70
2018-10-21T05:07:36.938Z,25.83
2018-10-21T05:10:16.487Z,23.63
2018-10-21T05:12:45.424Z,23.53
2018-10-21T05:15:16.552Z,25.43
2018-10-21T05:17:45.555Z,26.17
2018-10-21T05:20:14.817Z,25.33
2018-10-21T05:22:43.895Z,30.77
2018-10-21T05:25:13.004Z,35.67
2018-10-21T05:27:42.445Z,39.00
2018-10-21T05:30:12.401Z,40.90
2018-10-21T05:32:42.197Z,35.07
2018-10-21T05:35:12.601Z,31.43
2018-10-21T05:37:41.884Z,31.33
2018-10-21T05:40:12.858Z,28.97
2018-10-21T05:42:42.243Z,29.97
2018-10-21T05:45:11.300Z,27.50
2018-10-21T05:47:40.660Z,27.10
2018-10-21T05:50:10.808Z,29.00
2018-10-21T05:52:40.824Z,30.07
2018-10-21T05:55:10.440Z,33.00
2018-10-21T05:57:39.544Z,35.13
2018-10-21T06:00:13.948Z,40.50
2018-10-21T06:02:43.120Z,41.23
2018-10-21T06:05:23.404Z,37.80
2018-10-21T06:07:52.912Z,37.97
2018-10-21T06:10:22.923Z,37.73
2018-10-21T06:12:51.928Z,39.27
2018-10-21T06:15:20.992Z,38.27
2018-10-21T06:17:50.021Z,38.87
2018-10-21T06:20:23.576Z,38.10
2018-10-21T06:22:53.528Z,44.70
2018-10-21T06:25:22.549Z,47.77
2018-10-21T06:27:51.568Z,47.33
2018-10-21T06:30:20.750Z,45.17
2018-10-21T06:32:49.768Z,40.00
2018-10-21T06:35:18.784Z,37.40
2018-10-21T06:37:47.863Z,37.00
2018-10-21T06:40:16.872Z,35.33
2018-10-21T06:42:45.908Z,37.97
2018-10-21T06:45:15.047Z,36.93
2018-10-21T06:47:43.977Z,30.33
2018-10-21T06:50:15.940Z,38.83
2018-10-21T06:52:45.615Z,42.10
2018-10-21T06:55:14.660Z,46.23
2018-10-21T06:57:44.584Z,38.70
2018-10-21T07:00:13.544Z,44.57
2018-10-21T07:02:42.595Z,43.67
2018-10-21T07:05:23.160Z,57.33
2018-10-21T07:07:52.323Z,47.50
2018-10-21T07:10:21.709Z,41.93
2018-10-21T07:12:51.038Z,43.70
2018-10-21T07:15:20.502Z,48.60
2018-10-21T18:30:35.990Z,16.80
2018-10-21T18:33:05.264Z,12.90
2018-10-21T18:35:34.233Z,17.13
2018-10-21T18:38:04.555Z,16.63
2018-10-21T18:40:33.675Z,15.23
2018-10-21T18:43:02.706Z,20.20
2018-10-21T18:45:32.158Z,17.80
2018-10-21T18:48:01.223Z,21.47
2018-10-21T18:50:30.265Z,18.43
2018-10-21T18:53:00.248Z,23.10
2018-10-21T18:55:30.143Z,23.23
2018-10-21T18:57:59.199Z,21.03
2018-10-21T19:17:46.673Z,17.43
2018-10-21T19:20:16.749Z,18.77
2018-10-21T19:22:45.791Z,18.23
2018-10-21T19:25:15.988Z,21.80
2018-10-21T19:27:45.571Z,19.33
2018-10-21T19:30:15.351Z,21.57
2018-10-21T19:32:44.677Z,23.07
2018-10-21T19:35:14.968Z,22.73
2018-10-21T19:37:44.006Z,22.33
2018-10-21T19:40:17.653Z,24.40
2018-10-21T19:42:46.827Z,23.37
2018-10-21T19:45:16.125Z,22.17
2018-10-21T19:47:45.165Z,22.07
2018-10-21T19:50:15.277Z,23.13
2018-10-21T19:52:44.527Z,20.47
2018-10-21T19:55:14.840Z,22.17
2018-10-21T19:57:43.971Z,20.70
2018-10-21T20:00:14.489Z,22.83
2018-10-21T20:02:43.973Z,22.57
2018-10-21T20:05:14.478Z,21.60
2018-10-21T20:07:43.603Z,18.60
2018-10-21T20:10:13.855Z,18.90
2018-10-21T20:12:42.904Z,22.43
2018-10-21T20:15:14.113Z,21.57
2018-10-21T20:17:43.140Z,19.53
2018-10-21T20:20:13.280Z,19.53
2018-10-21T20:22:42.356Z,21.50
